Forside
METAR-TAF:

METAR-TAF

Lufthavne :

Green Bay, Wisconsin, USA

Breddekreds: 44-28-46N, længdekreds: 088-08-12W, højde: 211 m

Aktuelle vejr

Denne rapport blev lavet for 24 minutter siden, kl. 09:53 UTC
Vind stille
Temperatur 0°C
Fugtighed 80%
Tryk 1007 hPa
Sigt: 16.1 km
Overskyet i en højde af 1600 ft

METAR: KGRB 190953Z AUTO 00000KT 10SM OVC016 00/M03 A2974 RMK AO2 SLP077 T00001028

Tid: 04:17 (10:17 UTC)

Vejrudsigter

Denne rapport blev lavet for 4 timer og 57 minutter siden, kl. 05:20 UTC
Foreløbig gælder fra 19 på 06 UTC til 20 på 06 UTC
Vind 3 kt fra varierende retninger
Sigt: 10 km
Overskyet i en højde af 2000 ft
Fra 19 på 1600 UTC
Vind 4 kt fra varierende retninger
Sigt: 10 km
Overskyet i en højde af 2500 ft
Fra 20 på 0500 UTC
Vind 4 kt fra vest
Sigt: 8.0 km
Overskyet i en højde af 1500 ft
dis

TAF: KGRB 190520Z 1906/2006 VRB03KT P6SM OVC020 FM191600 VRB04KT P6SM OVC025 FM200500 26004KT 5SM BR OVC015

Vejrobservationer og prognoser fra mere end 4000 lufthavne (METAR og TAF).

De gule og røde prikker repræsenterer de meteorologiske stationer.

Flyt musen over at se navnet på stationen.

Så klik over at se vejr observationer og prognoser.

At skifte det kort: Klik på de grønne knapper med et sort kors for at zoome ind; på den grønne knap med en bindestreg for at zoome ud; eller på de grønne pile for tilstødende kort.


METAR-TAF: